CheckWX is a tool to help pilots better visualize weather data.  It is not intended as a substitute for an official pre-flight weather briefing.

04:39:44 UTC

ENSE METAR
Snorre A Oilp
Snorre A Oilp, Norway
Current

20 mins ago

ENSE 170420Z AUTO 33035KT 9999NDV -SHRA BKN024/// 09/05 Q1006 W///S/
Observed
Sep-17 @ 04:20 UTC
Wind
  • 330° at 35 KTS
Visibility
Conditions
Light Rain
Cloud Levels
  • Broken at 2,400' AGL
Temperature
C / 48°F
Dewpoint
C / 41°F
Humidity
76%
Altimeter
29.7" Hg
Pressure
1005.92 hPa
Previous

50 mins ago

ENSE 170350Z AUTO 33033G43KT 9999NDV DZ BKN022/// BKN068/// 09/05 Q1006 W///S/
Observed
Sep-17 @ 03:50 UTC
Wind
  • 330° at 33 KTS
  • Gusting to 43 KTS
Visibility
Conditions
Drizzle
Cloud Levels
  • Broken at 2,200' AGL
  • Broken at 6,800' AGL
Temperature
C / 48°F
Dewpoint
C / 41°F
Humidity
76%
Altimeter
29.7" Hg
Pressure
1005.92 hPa
Previous

1 hour ago

ENSE 170320Z AUTO 32031KT 9999NDV BKN025/// BKN028/// 08/04 Q1006 W///S/
Observed
Sep-17 @ 03:20 UTC
Wind
  • 320° at 31 KTS
Visibility
Cloud Levels
  • Broken at 2,500' AGL
  • Broken at 2,800' AGL
Temperature
C / 46°F
Dewpoint
C / 39°F
Humidity
76%
Altimeter
29.7" Hg
Pressure
1005.92 hPa